sensor_id;sensor_type;location;lat;lon;timestamp;P1;durP1;ratioP1;P2;durP2;ratioP2
20114;SDS011;10218;42.874;25.320;2023-07-09T00:01:56;9.40;;;6.20;;
20114;SDS011;10218;42.874;25.320;2023-07-09T00:04:24;9.80;;;6.17;;
20114;SDS011;10218;42.874;25.320;2023-07-09T00:06:51;7.50;;;6.23;;
20114;SDS011;10218;42.874;25.320;2023-07-09T00:09:19;11.70;;;5.93;;
20114;SDS011;10218;42.874;25.320;2023-07-09T00:11:48;8.50;;;6.53;;
20114;SDS011;10218;42.874;25.320;2023-07-09T00:14:16;11.03;;;6.17;;
20114;SDS011;10218;42.874;25.320;2023-07-09T00:16:44;11.17;;;6.33;;
20114;SDS011;10218;42.874;25.320;2023-07-09T00:19:16;11.50;;;6.70;;
20114;SDS011;10218;42.874;25.320;2023-07-09T00:21:46;7.70;;;5.93;;
20114;SDS011;10218;42.874;25.320;2023-07-09T00:24:16;7.43;;;6.20;;
20114;SDS011;10218;42.874;25.320;2023-07-09T00:26:43;10.40;;;6.33;;
20114;SDS011;10218;42.874;25.320;2023-07-09T00:29:10;9.73;;;6.43;;
20114;SDS011;10218;42.874;25.320;2023-07-09T00:31:38;9.97;;;6.23;;
20114;SDS011;10218;42.874;25.320;2023-07-09T00:34:08;15.07;;;6.73;;
20114;SDS011;10218;42.874;25.320;2023-07-09T00:36:41;11.83;;;6.53;;
20114;SDS011;10218;42.874;25.320;2023-07-09T00:39:19;9.50;;;6.67;;
20114;SDS011;10218;42.874;25.320;2023-07-09T00:41:49;11.87;;;6.30;;
20114;SDS011;10218;42.874;25.320;2023-07-09T00:49:24;11.27;;;6.60;;
20114;SDS011;10218;42.874;25.320;2023-07-09T00:51:59;10.57;;;6.57;;
20114;SDS011;10218;42.874;25.320;2023-07-09T00:54:35;10.63;;;6.30;;
20114;SDS011;10218;42.874;25.320;2023-07-09T00:57:11;9.10;;;5.90;;
20114;SDS011;10218;42.874;25.320;2023-07-09T00:59:46;11.57;;;6.77;;
20114;SDS011;10218;42.874;25.320;2023-07-09T01:02:20;14.50;;;6.33;;
20114;SDS011;10218;42.874;25.320;2023-07-09T01:04:51;8.80;;;6.47;;
20114;SDS011;10218;42.874;25.320;2023-07-09T01:07:30;12.70;;;6.00;;
20114;SDS011;10218;42.874;25.320;2023-07-09T01:09:57;18.50;;;6.77;;
20114;SDS011;10218;42.874;25.320;2023-07-09T01:12:25;9.80;;;6.13;;
20114;SDS011;10218;42.874;25.320;2023-07-09T01:14:53;13.03;;;6.63;;
20114;SDS011;10218;42.874;25.320;2023-07-09T01:17:26;10.93;;;6.57;;
20114;SDS011;10218;42.874;25.320;2023-07-09T01:19:55;11.60;;;6.83;;
20114;SDS011;10218;42.874;25.320;2023-07-09T01:22:23;19.70;;;6.47;;
20114;SDS011;10218;42.874;25.320;2023-07-09T01:27:23;12.50;;;6.60;;
20114;SDS011;10218;42.874;25.320;2023-07-09T01:29:54;14.10;;;7.00;;
20114;SDS011;10218;42.874;25.320;2023-07-09T01:32:22;15.37;;;6.60;;
20114;SDS011;10218;42.874;25.320;2023-07-09T01:34:51;16.93;;;6.67;;
20114;SDS011;10218;42.874;25.320;2023-07-09T01:37:22;11.90;;;6.47;;
20114;SDS011;10218;42.874;25.320;2023-07-09T01:39:52;12.97;;;7.30;;
20114;SDS011;10218;42.874;25.320;2023-07-09T01:42:21;9.77;;;6.50;;
20114;SDS011;10218;42.874;25.320;2023-07-09T01:44:50;11.90;;;6.73;;
20114;SDS011;10218;42.874;25.320;2023-07-09T01:47:18;21.00;;;8.17;;
20114;SDS011;10218;42.874;25.320;2023-07-09T01:49:45;11.03;;;6.97;;
20114;SDS011;10218;42.874;25.320;2023-07-09T01:52:14;14.27;;;7.03;;
20114;SDS011;10218;42.874;25.320;2023-07-09T01:54:42;12.70;;;7.33;;
20114;SDS011;10218;42.874;25.320;2023-07-09T01:57:17;15.37;;;7.03;;
20114;SDS011;10218;42.874;25.320;2023-07-09T01:59:50;14.03;;;7.17;;
20114;SDS011;10218;42.874;25.320;2023-07-09T02:02:18;11.83;;;6.97;;
20114;SDS011;10218;42.874;25.320;2023-07-09T02:04:50;19.20;;;7.83;;
20114;SDS011;10218;42.874;25.320;2023-07-09T02:07:19;14.97;;;7.00;;
20114;SDS011;10218;42.874;25.320;2023-07-09T02:09:48;15.73;;;6.93;;
20114;SDS011;10218;42.874;25.320;2023-07-09T02:12:15;9.73;;;6.23;;
20114;SDS011;10218;42.874;25.320;2023-07-09T02:14:43;16.83;;;6.73;;
20114;SDS011;10218;42.874;25.320;2023-07-09T02:17:12;11.03;;;7.00;;
20114;SDS011;10218;42.874;25.320;2023-07-09T02:19:40;15.13;;;7.03;;
20114;SDS011;10218;42.874;25.320;2023-07-09T02:22:08;13.67;;;6.80;;
20114;SDS011;10218;42.874;25.320;2023-07-09T02:24:37;11.87;;;6.30;;
20114;SDS011;10218;42.874;25.320;2023-07-09T02:27:05;12.43;;;6.77;;
20114;SDS011;10218;42.874;25.320;2023-07-09T02:29:34;14.27;;;6.83;;
20114;SDS011;10218;42.874;25.320;2023-07-09T02:32:01;14.47;;;6.57;;
20114;SDS011;10218;42.874;25.320;2023-07-09T02:34:29;12.80;;;6.57;;
20114;SDS011;10218;42.874;25.320;2023-07-09T02:36:57;10.23;;;6.77;;
20114;SDS011;10218;42.874;25.320;2023-07-09T02:39:26;12.50;;;6.57;;
20114;SDS011;10218;42.874;25.320;2023-07-09T02:41:53;14.10;;;6.97;;
20114;SDS011;10218;42.874;25.320;2023-07-09T02:44:20;14.87;;;7.43;;
20114;SDS011;10218;42.874;25.320;2023-07-09T02:46:48;18.90;;;7.20;;
20114;SDS011;10218;42.874;25.320;2023-07-09T02:49:15;14.37;;;6.57;;
20114;SDS011;10218;42.874;25.320;2023-07-09T02:51:43;9.53;;;6.57;;
20114;SDS011;10218;42.874;25.320;2023-07-09T02:54:10;12.43;;;6.83;;
20114;SDS011;10218;42.874;25.320;2023-07-09T02:56:37;15.57;;;7.30;;
20114;SDS011;10218;42.874;25.320;2023-07-09T02:59:04;19.07;;;6.97;;
20114;SDS011;10218;42.874;25.320;2023-07-09T03:01:32;12.17;;;7.03;;
20114;SDS011;10218;42.874;25.320;2023-07-09T03:04:01;14.23;;;7.13;;
20114;SDS011;10218;42.874;25.320;2023-07-09T03:06:30;12.23;;;6.80;;
20114;SDS011;10218;42.874;25.320;2023-07-09T03:09:02;16.57;;;6.97;;
20114;SDS011;10218;42.874;25.320;2023-07-09T03:11:31;13.60;;;6.80;;
20114;SDS011;10218;42.874;25.320;2023-07-09T03:13:59;14.03;;;6.63;;
20114;SDS011;10218;42.874;25.320;2023-07-09T03:16:28;12.67;;;7.27;;
20114;SDS011;10218;42.874;25.320;2023-07-09T03:18:57;19.80;;;7.43;;
20114;SDS011;10218;42.874;25.320;2023-07-09T03:21:24;12.87;;;6.60;;
20114;SDS011;10218;42.874;25.320;2023-07-09T03:23:53;12.83;;;6.73;;
20114;SDS011;10218;42.874;25.320;2023-07-09T03:26:21;11.30;;;6.40;;
20114;SDS011;10218;42.874;25.320;2023-07-09T03:28:48;14.00;;;6.63;;
20114;SDS011;10218;42.874;25.320;2023-07-09T03:31:15;14.70;;;6.43;;
20114;SDS011;10218;42.874;25.320;2023-07-09T03:33:43;17.00;;;6.30;;
20114;SDS011;10218;42.874;25.320;2023-07-09T03:36:10;13.87;;;6.63;;
20114;SDS011;10218;42.874;25.320;2023-07-09T03:38:37;14.80;;;6.60;;
20114;SDS011;10218;42.874;25.320;2023-07-09T03:41:04;15.53;;;6.67;;
20114;SDS011;10218;42.874;25.320;2023-07-09T03:43:31;14.47;;;6.27;;
20114;SDS011;10218;42.874;25.320;2023-07-09T03:45:59;9.90;;;6.23;;
20114;SDS011;10218;42.874;25.320;2023-07-09T03:48:26;13.97;;;6.03;;
20114;SDS011;10218;42.874;25.320;2023-07-09T03:50:53;13.30;;;6.07;;
20114;SDS011;10218;42.874;25.320;2023-07-09T03:53:20;18.40;;;6.73;;
20114;SDS011;10218;42.874;25.320;2023-07-09T03:55:51;14.53;;;6.27;;
20114;SDS011;10218;42.874;25.320;2023-07-09T03:58:20;9.03;;;6.97;;
20114;SDS011;10218;42.874;25.320;2023-07-09T04:00:47;11.67;;;6.60;;
20114;SDS011;10218;42.874;25.320;2023-07-09T04:03:15;10.50;;;5.97;;
20114;SDS011;10218;42.874;25.320;2023-07-09T04:05:42;14.20;;;6.37;;
20114;SDS011;10218;42.874;25.320;2023-07-09T04:08:09;12.10;;;6.40;;
20114;SDS011;10218;42.874;25.320;2023-07-09T04:10:36;11.27;;;6.30;;
20114;SDS011;10218;42.874;25.320;2023-07-09T04:13:03;11.60;;;5.90;;
20114;SDS011;10218;42.874;25.320;2023-07-09T04:15:30;11.73;;;6.17;;
20114;SDS011;10218;42.874;25.320;2023-07-09T04:17:57;10.20;;;6.27;;
20114;SDS011;10218;42.874;25.320;2023-07-09T04:20:24;11.70;;;5.63;;
20114;SDS011;10218;42.874;25.320;2023-07-09T04:22:51;12.87;;;6.20;;
20114;SDS011;10218;42.874;25.320;2023-07-09T04:25:19;10.23;;;6.03;;
20114;SDS011;10218;42.874;25.320;2023-07-09T04:27:46;13.90;;;5.43;;
20114;SDS011;10218;42.874;25.320;2023-07-09T04:30:14;13.63;;;5.70;;
20114;SDS011;10218;42.874;25.320;2023-07-09T04:32:42;8.83;;;5.70;;
20114;SDS011;10218;42.874;25.320;2023-07-09T04:35:11;13.33;;;6.03;;
20114;SDS011;10218;42.874;25.320;2023-07-09T04:37:39;7.43;;;5.23;;
20114;SDS011;10218;42.874;25.320;2023-07-09T04:40:08;9.93;;;5.50;;
20114;SDS011;10218;42.874;25.320;2023-07-09T04:42:37;7.50;;;5.60;;
20114;SDS011;10218;42.874;25.320;2023-07-09T04:45:06;11.70;;;5.50;;
20114;SDS011;10218;42.874;25.320;2023-07-09T04:47:36;8.87;;;5.27;;
20114;SDS011;10218;42.874;25.320;2023-07-09T04:50:07;8.63;;;5.30;;
20114;SDS011;10218;42.874;25.320;2023-07-09T04:52:35;11.77;;;5.33;;
20114;SDS011;10218;42.874;25.320;2023-07-09T04:55:02;10.13;;;5.57;;
20114;SDS011;10218;42.874;25.320;2023-07-09T04:57:29;14.20;;;5.20;;
20114;SDS011;10218;42.874;25.320;2023-07-09T04:59:56;10.60;;;5.60;;
20114;SDS011;10218;42.874;25.320;2023-07-09T05:02:24;7.50;;;5.00;;
20114;SDS011;10218;42.874;25.320;2023-07-09T05:04:51;11.77;;;5.07;;
20114;SDS011;10218;42.874;25.320;2023-07-09T05:07:18;9.33;;;5.47;;
20114;SDS011;10218;42.874;25.320;2023-07-09T05:09:45;10.37;;;5.10;;
20114;SDS011;10218;42.874;25.320;2023-07-09T05:12:13;8.47;;;5.50;;
20114;SDS011;10218;42.874;25.320;2023-07-09T05:14:40;12.23;;;5.30;;
20114;SDS011;10218;42.874;25.320;2023-07-09T05:17:07;8.23;;;5.20;;
20114;SDS011;10218;42.874;25.320;2023-07-09T05:19:35;8.67;;;5.00;;
20114;SDS011;10218;42.874;25.320;2023-07-09T05:22:02;10.70;;;5.10;;
20114;SDS011;10218;42.874;25.320;2023-07-09T05:24:30;6.40;;;4.47;;
20114;SDS011;10218;42.874;25.320;2023-07-09T05:26:57;7.00;;;4.40;;
20114;SDS011;10218;42.874;25.320;2023-07-09T05:29:24;12.00;;;4.63;;
20114;SDS011;10218;42.874;25.320;2023-07-09T05:31:51;10.37;;;4.90;;
20114;SDS011;10218;42.874;25.320;2023-07-09T05:34:19;11.40;;;4.97;;
20114;SDS011;10218;42.874;25.320;2023-07-09T05:36:46;6.87;;;4.27;;
20114;SDS011;10218;42.874;25.320;2023-07-09T05:39:13;9.80;;;4.67;;
20114;SDS011;10218;42.874;25.320;2023-07-09T05:41:40;6.00;;;4.50;;
20114;SDS011;10218;42.874;25.320;2023-07-09T05:44:07;8.47;;;4.80;;
20114;SDS011;10218;42.874;25.320;2023-07-09T05:46:36;10.80;;;4.90;;
20114;SDS011;10218;42.874;25.320;2023-07-09T05:49:04;7.73;;;4.50;;
20114;SDS011;10218;42.874;25.320;2023-07-09T05:51:33;10.33;;;4.60;;
20114;SDS011;10218;42.874;25.320;2023-07-09T05:54:01;5.07;;;4.30;;
20114;SDS011;10218;42.874;25.320;2023-07-09T05:56:28;7.20;;;4.30;;
20114;SDS011;10218;42.874;25.320;2023-07-09T05:58:55;7.97;;;4.50;;
20114;SDS011;10218;42.874;25.320;2023-07-09T06:01:23;6.50;;;4.60;;
20114;SDS011;10218;42.874;25.320;2023-07-09T06:03:51;7.77;;;4.77;;
20114;SDS011;10218;42.874;25.320;2023-07-09T06:06:18;7.33;;;4.73;;
20114;SDS011;10218;42.874;25.320;2023-07-09T06:08:45;9.73;;;4.60;;
20114;SDS011;10218;42.874;25.320;2023-07-09T06:11:13;6.60;;;4.73;;
20114;SDS011;10218;42.874;25.320;2023-07-09T06:13:41;6.03;;;4.20;;
20114;SDS011;10218;42.874;25.320;2023-07-09T06:16:08;12.50;;;4.13;;
20114;SDS011;10218;42.874;25.320;2023-07-09T06:18:35;8.17;;;4.30;;
20114;SDS011;10218;42.874;25.320;2023-07-09T06:21:03;8.17;;;6.10;;
20114;SDS011;10218;42.874;25.320;2023-07-09T06:23:30;13.73;;;9.17;;
20114;SDS011;10218;42.874;25.320;2023-07-09T06:25:58;9.67;;;4.37;;
20114;SDS011;10218;42.874;25.320;2023-07-09T06:28:26;14.50;;;6.97;;
20114;SDS011;10218;42.874;25.320;2023-07-09T06:30:57;7.50;;;4.37;;
20114;SDS011;10218;42.874;25.320;2023-07-09T06:33:25;10.03;;;5.87;;
20114;SDS011;10218;42.874;25.320;2023-07-09T06:35:55;6.97;;;4.17;;
20114;SDS011;10218;42.874;25.320;2023-07-09T06:38:24;7.27;;;3.97;;
20114;SDS011;10218;42.874;25.320;2023-07-09T06:40:52;5.07;;;4.20;;
20114;SDS011;10218;42.874;25.320;2023-07-09T06:43:19;8.43;;;4.40;;
20114;SDS011;10218;42.874;25.320;2023-07-09T06:45:48;7.73;;;4.33;;
20114;SDS011;10218;42.874;25.320;2023-07-09T06:48:16;7.57;;;4.63;;
20114;SDS011;10218;42.874;25.320;2023-07-09T06:50:43;6.60;;;4.17;;
20114;SDS011;10218;42.874;25.320;2023-07-09T06:53:10;7.13;;;4.10;;
20114;SDS011;10218;42.874;25.320;2023-07-09T06:55:37;10.70;;;4.63;;
20114;SDS011;10218;42.874;25.320;2023-07-09T06:58:05;8.53;;;4.37;;
20114;SDS011;10218;42.874;25.320;2023-07-09T07:00:36;8.10;;;4.27;;
20114;SDS011;10218;42.874;25.320;2023-07-09T07:03:03;9.37;;;4.87;;
20114;SDS011;10218;42.874;25.320;2023-07-09T07:05:32;6.63;;;3.70;;
20114;SDS011;10218;42.874;25.320;2023-07-09T07:08:00;7.63;;;4.40;;
20114;SDS011;10218;42.874;25.320;2023-07-09T07:10:28;5.17;;;4.10;;
20114;SDS011;10218;42.874;25.320;2023-07-09T07:12:56;5.87;;;4.27;;
20114;SDS011;10218;42.874;25.320;2023-07-09T07:15:23;9.50;;;4.30;;
20114;SDS011;10218;42.874;25.320;2023-07-09T07:17:50;8.17;;;4.30;;
20114;SDS011;10218;42.874;25.320;2023-07-09T07:20:18;10.77;;;4.73;;
20114;SDS011;10218;42.874;25.320;2023-07-09T07:22:45;8.17;;;3.77;;
20114;SDS011;10218;42.874;25.320;2023-07-09T07:25:12;7.60;;;3.90;;
20114;SDS011;10218;42.874;25.320;2023-07-09T07:27:40;7.57;;;3.93;;
20114;SDS011;10218;42.874;25.320;2023-07-09T07:30:07;6.50;;;3.87;;
20114;SDS011;10218;42.874;25.320;2023-07-09T07:32:38;6.03;;;4.40;;
20114;SDS011;10218;42.874;25.320;2023-07-09T07:35:11;14.27;;;4.40;;
20114;SDS011;10218;42.874;25.320;2023-07-09T07:37:40;5.43;;;4.10;;
20114;SDS011;10218;42.874;25.320;2023-07-09T07:40:08;6.37;;;4.10;;
20114;SDS011;10218;42.874;25.320;2023-07-09T07:42:36;8.73;;;4.20;;
20114;SDS011;10218;42.874;25.320;2023-07-09T07:45:04;4.80;;;4.17;;
20114;SDS011;10218;42.874;25.320;2023-07-09T07:47:32;9.07;;;4.30;;
20114;SDS011;10218;42.874;25.320;2023-07-09T07:50:01;4.80;;;4.00;;
20114;SDS011;10218;42.874;25.320;2023-07-09T07:52:28;6.90;;;3.90;;
20114;SDS011;10218;42.874;25.320;2023-07-09T07:54:55;9.50;;;4.20;;
20114;SDS011;10218;42.874;25.320;2023-07-09T07:57:25;6.43;;;3.60;;
20114;SDS011;10218;42.874;25.320;2023-07-09T07:59:52;6.47;;;3.70;;
20114;SDS011;10218;42.874;25.320;2023-07-09T08:02:20;7.50;;;3.87;;
20114;SDS011;10218;42.874;25.320;2023-07-09T08:04:47;7.00;;;3.97;;
20114;SDS011;10218;42.874;25.320;2023-07-09T08:07:14;6.10;;;4.50;;
20114;SDS011;10218;42.874;25.320;2023-07-09T08:09:41;6.37;;;4.20;;
20114;SDS011;10218;42.874;25.320;2023-07-09T08:12:09;7.40;;;4.30;;
20114;SDS011;10218;42.874;25.320;2023-07-09T08:14:41;8.83;;;3.90;;
20114;SDS011;10218;42.874;25.320;2023-07-09T08:17:11;5.30;;;4.07;;
20114;SDS011;10218;42.874;25.320;2023-07-09T08:19:45;5.17;;;3.90;;
20114;SDS011;10218;42.874;25.320;2023-07-09T08:22:20;6.43;;;3.73;;
20114;SDS011;10218;42.874;25.320;2023-07-09T08:24:49;7.67;;;4.10;;
20114;SDS011;10218;42.874;25.320;2023-07-09T08:27:16;9.03;;;3.80;;
20114;SDS011;10218;42.874;25.320;2023-07-09T08:29:45;9.13;;;4.03;;
20114;SDS011;10218;42.874;25.320;2023-07-09T08:32:12;5.03;;;3.70;;
20114;SDS011;10218;42.874;25.320;2023-07-09T08:34:40;7.73;;;3.90;;
20114;SDS011;10218;42.874;25.320;2023-07-09T08:37:12;6.43;;;3.80;;
20114;SDS011;10218;42.874;25.320;2023-07-09T08:39:39;4.80;;;3.53;;
20114;SDS011;10218;42.874;25.320;2023-07-09T08:42:10;6.07;;;3.87;;
20114;SDS011;10218;42.874;25.320;2023-07-09T08:50:11;5.90;;;3.73;;
20114;SDS011;10218;42.874;25.320;2023-07-09T08:52:43;8.07;;;3.57;;
20114;SDS011;10218;42.874;25.320;2023-07-09T08:57:50;8.13;;;4.00;;
20114;SDS011;10218;42.874;25.320;2023-07-09T09:00:29;11.17;;;3.70;;
20114;SDS011;10218;42.874;25.320;2023-07-09T09:03:02;9.60;;;3.70;;
20114;SDS011;10218;42.874;25.320;2023-07-09T09:05:35;6.37;;;3.67;;
20114;SDS011;10218;42.874;25.320;2023-07-09T09:08:13;7.40;;;3.67;;
20114;SDS011;10218;42.874;25.320;2023-07-09T09:10:46;6.07;;;3.50;;
20114;SDS011;10218;42.874;25.320;2023-07-09T09:13:16;9.97;;;3.97;;
20114;SDS011;10218;42.874;25.320;2023-07-09T09:15:47;4.67;;;3.70;;
20114;SDS011;10218;42.874;25.320;2023-07-09T09:18:18;7.27;;;3.90;;
20114;SDS011;10218;42.874;25.320;2023-07-09T09:20:51;3.90;;;3.50;;
20114;SDS011;10218;42.874;25.320;2023-07-09T09:23:25;7.37;;;3.47;;
20114;SDS011;10218;42.874;25.320;2023-07-09T09:26:02;6.13;;;3.60;;
20114;SDS011;10218;42.874;25.320;2023-07-09T09:28:41;8.90;;;3.63;;
20114;SDS011;10218;42.874;25.320;2023-07-09T09:31:09;8.67;;;3.87;;
20114;SDS011;10218;42.874;25.320;2023-07-09T09:33:41;7.00;;;3.90;;
20114;SDS011;10218;42.874;25.320;2023-07-09T09:36:15;5.80;;;3.30;;
20114;SDS011;10218;42.874;25.320;2023-07-09T09:38:47;4.57;;;3.57;;
20114;SDS011;10218;42.874;25.320;2023-07-09T09:41:21;5.07;;;3.50;;
20114;SDS011;10218;42.874;25.320;2023-07-09T09:43:53;5.43;;;3.42;;
20114;SDS011;10218;42.874;25.320;2023-07-09T09:46:25;7.85;;;3.30;;
20114;SDS011;10218;42.874;25.320;2023-07-09T09:48:59;5.60;;;3.47;;
20114;SDS011;10218;42.874;25.320;2023-07-09T09:51:27;5.72;;;3.40;;
20114;SDS011;10218;42.874;25.320;2023-07-09T09:53:58;5.18;;;3.25;;
20114;SDS011;10218;42.874;25.320;2023-07-09T09:56:34;3.87;;;3.20;;
20114;SDS011;10218;42.874;25.320;2023-07-09T09:59:03;4.03;;;3.42;;
20114;SDS011;10218;42.874;25.320;2023-07-09T10:01:33;6.90;;;3.30;;
20114;SDS011;10218;42.874;25.320;2023-07-09T10:04:03;5.35;;;3.83;;
20114;SDS011;10218;42.874;25.320;2023-07-09T10:06:44;3.75;;;3.10;;
20114;SDS011;10218;42.874;25.320;2023-07-09T10:09:16;7.90;;;3.35;;
20114;SDS011;10218;42.874;25.320;2023-07-09T10:12:14;7.30;;;3.50;;
20114;SDS011;10218;42.874;25.320;2023-07-09T10:14:49;3.58;;;2.85;;
20114;SDS011;10218;42.874;25.320;2023-07-09T10:17:27;7.07;;;3.55;;
20114;SDS011;10218;42.874;25.320;2023-07-09T10:20:16;5.40;;;3.20;;
20114;SDS011;10218;42.874;25.320;2023-07-09T10:25:57;3.70;;;3.12;;
20114;SDS011;10218;42.874;25.320;2023-07-09T10:32:15;8.30;;;3.20;;
20114;SDS011;10218;42.874;25.320;2023-07-09T10:39:47;6.78;;;3.80;;
20114;SDS011;10218;42.874;25.320;2023-07-09T10:42:23;4.90;;;3.10;;
20114;SDS011;10218;42.874;25.320;2023-07-09T10:44:56;6.35;;;3.22;;
20114;SDS011;10218;42.874;25.320;2023-07-09T10:49:58;9.20;;;3.60;;
20114;SDS011;10218;42.874;25.320;2023-07-09T10:52:36;6.47;;;3.55;;
20114;SDS011;10218;42.874;25.320;2023-07-09T10:55:09;4.57;;;3.50;;
20114;SDS011;10218;42.874;25.320;2023-07-09T11:00:41;6.25;;;3.45;;
20114;SDS011;10218;42.874;25.320;2023-07-09T11:03:18;6.55;;;3.42;;
20114;SDS011;10218;42.874;25.320;2023-07-09T11:05:49;4.43;;;3.47;;
20114;SDS011;10218;42.874;25.320;2023-07-09T11:08:22;6.85;;;3.60;;
20114;SDS011;10218;42.874;25.320;2023-07-09T11:11:04;6.43;;;3.50;;
20114;SDS011;10218;42.874;25.320;2023-07-09T11:13:38;5.15;;;3.15;;
20114;SDS011;10218;42.874;25.320;2023-07-09T11:16:23;3.72;;;3.20;;
20114;SDS011;10218;42.874;25.320;2023-07-09T11:18:58;8.55;;;3.20;;
20114;SDS011;10218;42.874;25.320;2023-07-09T11:21:28;6.15;;;3.35;;
20114;SDS011;10218;42.874;25.320;2023-07-09T11:23:56;4.70;;;3.53;;
20114;SDS011;10218;42.874;25.320;2023-07-09T11:26:29;5.03;;;3.40;;
20114;SDS011;10218;42.874;25.320;2023-07-09T11:31:34;4.57;;;3.40;;
20114;SDS011;10218;42.874;25.320;2023-07-09T11:36:33;9.32;;;3.97;;
20114;SDS011;10218;42.874;25.320;2023-07-09T11:39:02;6.82;;;3.30;;
20114;SDS011;10218;42.874;25.320;2023-07-09T11:41:40;3.37;;;3.00;;
20114;SDS011;10218;42.874;25.320;2023-07-09T11:44:21;6.25;;;3.65;;
20114;SDS011;10218;42.874;25.320;2023-07-09T11:49:28;4.82;;;3.30;;
20114;SDS011;10218;42.874;25.320;2023-07-09T11:52:02;3.12;;;2.83;;
20114;SDS011;10218;42.874;25.320;2023-07-09T11:54:34;5.65;;;2.97;;
20114;SDS011;10218;42.874;25.320;2023-07-09T11:57:05;6.37;;;3.37;;
20114;SDS011;10218;42.874;25.320;2023-07-09T11:59:38;4.82;;;3.10;;
20114;SDS011;10218;42.874;25.320;2023-07-09T12:02:13;3.97;;;3.47;;
20114;SDS011;10218;42.874;25.320;2023-07-09T12:04:44;5.68;;;3.28;;
20114;SDS011;10218;42.874;25.320;2023-07-09T12:07:16;3.87;;;3.40;;
20114;SDS011;10218;42.874;25.320;2023-07-09T12:09:46;5.93;;;3.40;;
20114;SDS011;10218;42.874;25.320;2023-07-09T12:12:23;4.05;;;2.80;;
20114;SDS011;10218;42.874;25.320;2023-07-09T12:14:52;5.40;;;3.30;;
20114;SDS011;10218;42.874;25.320;2023-07-09T12:17:22;4.47;;;3.25;;
20114;SDS011;10218;42.874;25.320;2023-07-09T12:19:51;7.05;;;3.40;;
20114;SDS011;10218;42.874;25.320;2023-07-09T12:22:20;5.03;;;3.40;;
20114;SDS011;10218;42.874;25.320;2023-07-09T12:24:48;4.18;;;3.20;;
20114;SDS011;10218;42.874;25.320;2023-07-09T12:27:18;6.82;;;3.92;;
20114;SDS011;10218;42.874;25.320;2023-07-09T12:29:52;5.90;;;3.50;;
20114;SDS011;10218;42.874;25.320;2023-07-09T12:32:21;6.50;;;3.65;;
20114;SDS011;10218;42.874;25.320;2023-07-09T12:34:50;6.00;;;3.20;;
20114;SDS011;10218;42.874;25.320;2023-07-09T12:37:19;6.75;;;3.40;;
20114;SDS011;10218;42.874;25.320;2023-07-09T12:39:49;5.50;;;3.45;;
20114;SDS011;10218;42.874;25.320;2023-07-09T12:42:25;4.55;;;3.47;;
20114;SDS011;10218;42.874;25.320;2023-07-09T12:44:58;8.02;;;3.40;;
20114;SDS011;10218;42.874;25.320;2023-07-09T12:47:25;3.78;;;3.40;;
20114;SDS011;10218;42.874;25.320;2023-07-09T12:49:59;5.30;;;3.37;;
20114;SDS011;10218;42.874;25.320;2023-07-09T12:52:29;5.75;;;3.17;;
20114;SDS011;10218;42.874;25.320;2023-07-09T12:54:57;5.55;;;3.17;;
20114;SDS011;10218;42.874;25.320;2023-07-09T12:57:25;3.92;;;3.42;;
20114;SDS011;10218;42.874;25.320;2023-07-09T12:59:54;4.45;;;3.20;;
20114;SDS011;10218;42.874;25.320;2023-07-09T13:02:23;8.02;;;3.17;;
20114;SDS011;10218;42.874;25.320;2023-07-09T13:05:03;5.30;;;3.03;;
20114;SDS011;10218;42.874;25.320;2023-07-09T13:07:33;5.12;;;3.22;;
20114;SDS011;10218;42.874;25.320;2023-07-09T13:10:14;5.45;;;3.62;;
20114;SDS011;10218;42.874;25.320;2023-07-09T13:12:44;3.78;;;3.28;;
20114;SDS011;10218;42.874;25.320;2023-07-09T13:15:23;4.18;;;3.12;;
20114;SDS011;10218;42.874;25.320;2023-07-09T13:17:56;4.40;;;3.30;;
20114;SDS011;10218;42.874;25.320;2023-07-09T13:20:28;4.20;;;3.10;;
20114;SDS011;10218;42.874;25.320;2023-07-09T13:22:56;6.25;;;3.58;;
20114;SDS011;10218;42.874;25.320;2023-07-09T13:25:24;4.43;;;3.65;;
20114;SDS011;10218;42.874;25.320;2023-07-09T13:27:58;4.30;;;3.40;;
20114;SDS011;10218;42.874;25.320;2023-07-09T13:30:25;4.18;;;3.35;;
20114;SDS011;10218;42.874;25.320;2023-07-09T13:32:52;7.03;;;3.50;;
20114;SDS011;10218;42.874;25.320;2023-07-09T13:35:20;4.28;;;3.22;;
20114;SDS011;10218;42.874;25.320;2023-07-09T13:37:47;6.15;;;3.30;;
20114;SDS011;10218;42.874;25.320;2023-07-09T13:40:15;4.85;;;3.65;;
20114;SDS011;10218;42.874;25.320;2023-07-09T13:42:43;5.95;;;3.45;;
20114;SDS011;10218;42.874;25.320;2023-07-09T13:45:18;6.12;;;3.30;;
20114;SDS011;10218;42.874;25.320;2023-07-09T13:47:47;4.00;;;3.40;;
20114;SDS011;10218;42.874;25.320;2023-07-09T13:50:15;5.10;;;3.87;;
20114;SDS011;10218;42.874;25.320;2023-07-09T13:52:43;5.45;;;3.45;;
20114;SDS011;10218;42.874;25.320;2023-07-09T13:55:20;4.07;;;3.50;;
20114;SDS011;10218;42.874;25.320;2023-07-09T13:57:50;7.28;;;4.00;;
20114;SDS011;10218;42.874;25.320;2023-07-09T14:00:18;3.67;;;3.25;;
20114;SDS011;10218;42.874;25.320;2023-07-09T14:02:46;4.85;;;3.40;;
20114;SDS011;10218;42.874;25.320;2023-07-09T14:05:14;4.15;;;3.28;;
20114;SDS011;10218;42.874;25.320;2023-07-09T14:07:41;4.97;;;3.20;;
20114;SDS011;10218;42.874;25.320;2023-07-09T14:10:13;3.50;;;3.03;;
20114;SDS011;10218;42.874;25.320;2023-07-09T14:12:45;3.58;;;3.03;;
20114;SDS011;10218;42.874;25.320;2023-07-09T14:15:15;4.82;;;3.55;;
20114;SDS011;10218;42.874;25.320;2023-07-09T14:17:45;4.20;;;3.58;;
20114;SDS011;10218;42.874;25.320;2023-07-09T14:20:14;4.78;;;3.40;;
20114;SDS011;10218;42.874;25.320;2023-07-09T14:22:43;4.60;;;3.70;;
20114;SDS011;10218;42.874;25.320;2023-07-09T14:25:28;4.95;;;3.40;;
20114;SDS011;10218;42.874;25.320;2023-07-09T14:27:56;7.22;;;3.35;;
20114;SDS011;10218;42.874;25.320;2023-07-09T14:30:24;3.47;;;3.03;;
20114;SDS011;10218;42.874;25.320;2023-07-09T14:32:53;5.87;;;3.62;;
20114;SDS011;10218;42.874;25.320;2023-07-09T14:35:21;4.37;;;3.15;;
20114;SDS011;10218;42.874;25.320;2023-07-09T14:37:51;4.85;;;3.60;;
20114;SDS011;10218;42.874;25.320;2023-07-09T14:40:21;3.97;;;3.40;;
20114;SDS011;10218;42.874;25.320;2023-07-09T14:42:49;4.57;;;3.70;;
20114;SDS011;10218;42.874;25.320;2023-07-09T14:45:20;4.12;;;3.65;;
20114;SDS011;10218;42.874;25.320;2023-07-09T14:47:51;5.80;;;3.40;;
20114;SDS011;10218;42.874;25.320;2023-07-09T14:50:19;3.90;;;3.35;;
20114;SDS011;10218;42.874;25.320;2023-07-09T14:52:48;6.47;;;3.62;;
20114;SDS011;10218;42.874;25.320;2023-07-09T14:55:17;7.03;;;3.53;;
20114;SDS011;10218;42.874;25.320;2023-07-09T14:57:46;6.68;;;3.53;;
20114;SDS011;10218;42.874;25.320;2023-07-09T15:00:14;4.62;;;3.60;;
20114;SDS011;10218;42.874;25.320;2023-07-09T15:02:44;4.75;;;3.70;;
20114;SDS011;10218;42.874;25.320;2023-07-09T15:05:20;7.60;;;3.80;;
20114;SDS011;10218;42.874;25.320;2023-07-09T15:07:49;5.25;;;3.92;;
20114;SDS011;10218;42.874;25.320;2023-07-09T15:10:18;5.85;;;3.53;;
20114;SDS011;10218;42.874;25.320;2023-07-09T15:12:50;6.45;;;3.85;;
20114;SDS011;10218;42.874;25.320;2023-07-09T15:15:28;6.37;;;3.87;;
20114;SDS011;10218;42.874;25.320;2023-07-09T15:17:59;7.15;;;3.70;;
20114;SDS011;10218;42.874;25.320;2023-07-09T15:20:28;8.55;;;3.97;;
20114;SDS011;10218;42.874;25.320;2023-07-09T15:22:57;5.30;;;3.72;;
20114;SDS011;10218;42.874;25.320;2023-07-09T15:25:26;6.22;;;3.70;;
20114;SDS011;10218;42.874;25.320;2023-07-09T15:27:55;4.57;;;3.12;;